sensor_id;sensor_type;location;lat;lon;timestamp;P1;durP1;ratioP1;P2;durP2;ratioP2
9972;SDS011;5027;53.560;10.062;2023-05-08T00:01:55;4.20;;;2.53;;
9972;SDS011;5027;53.560;10.062;2023-05-08T00:04:21;2.83;;;2.40;;
9972;SDS011;5027;53.560;10.062;2023-05-08T00:06:48;2.07;;;1.93;;
9972;SDS011;5027;53.560;10.062;2023-05-08T00:09:16;3.23;;;2.37;;
9972;SDS011;5027;53.560;10.062;2023-05-08T00:11:43;4.40;;;2.43;;
9972;SDS011;5027;53.560;10.062;2023-05-08T00:14:09;2.60;;;2.40;;
9972;SDS011;5027;53.560;10.062;2023-05-08T00:16:36;2.70;;;2.30;;
9972;SDS011;5027;53.560;10.062;2023-05-08T00:19:03;4.47;;;2.47;;
9972;SDS011;5027;53.560;10.062;2023-05-08T00:21:29;3.13;;;2.63;;
9972;SDS011;5027;53.560;10.062;2023-05-08T00:23:56;3.57;;;2.80;;
9972;SDS011;5027;53.560;10.062;2023-05-08T00:26:23;2.40;;;2.20;;
9972;SDS011;5027;53.560;10.062;2023-05-08T00:28:49;3.27;;;2.60;;
9972;SDS011;5027;53.560;10.062;2023-05-08T00:31:16;2.60;;;2.40;;
9972;SDS011;5027;53.560;10.062;2023-05-08T00:33:43;4.10;;;2.40;;
9972;SDS011;5027;53.560;10.062;2023-05-08T00:36:09;3.37;;;2.37;;
9972;SDS011;5027;53.560;10.062;2023-05-08T00:38:37;2.77;;;2.20;;
9972;SDS011;5027;53.560;10.062;2023-05-08T00:41:04;2.77;;;2.40;;
9972;SDS011;5027;53.560;10.062;2023-05-08T00:43:30;2.83;;;2.27;;
9972;SDS011;5027;53.560;10.062;2023-05-08T00:45:59;2.80;;;2.20;;
9972;SDS011;5027;53.560;10.062;2023-05-08T00:48:31;2.50;;;2.30;;
9972;SDS011;5027;53.560;10.062;2023-05-08T00:50:59;2.77;;;2.57;;
9972;SDS011;5027;53.560;10.062;2023-05-08T00:53:30;3.70;;;2.57;;
9972;SDS011;5027;53.560;10.062;2023-05-08T00:56:01;4.10;;;2.60;;
9972;SDS011;5027;53.560;10.062;2023-05-08T00:58:27;3.43;;;2.43;;
9972;SDS011;5027;53.560;10.062;2023-05-08T01:00:57;2.50;;;2.30;;
9972;SDS011;5027;53.560;10.062;2023-05-08T01:03:24;2.70;;;2.50;;
9972;SDS011;5027;53.560;10.062;2023-05-08T01:05:52;2.47;;;2.27;;
9972;SDS011;5027;53.560;10.062;2023-05-08T01:08:19;2.70;;;2.40;;
9972;SDS011;5027;53.560;10.062;2023-05-08T01:17:04;2.87;;;2.57;;
9972;SDS011;5027;53.560;10.062;2023-05-08T01:22:30;4.27;;;2.47;;
9972;SDS011;5027;53.560;10.062;2023-05-08T01:25:15;2.97;;;2.60;;
9972;SDS011;5027;53.560;10.062;2023-05-08T01:33:48;3.70;;;2.73;;
9972;SDS011;5027;53.560;10.062;2023-05-08T01:36:40;2.57;;;2.23;;
9972;SDS011;5027;53.560;10.062;2023-05-08T01:39:18;5.57;;;2.63;;
9972;SDS011;5027;53.560;10.062;2023-05-08T01:41:55;3.17;;;2.70;;
9972;SDS011;5027;53.560;10.062;2023-05-08T01:44:28;3.47;;;2.40;;
9972;SDS011;5027;53.560;10.062;2023-05-08T01:47:05;3.07;;;2.80;;
9972;SDS011;5027;53.560;10.062;2023-05-08T01:49:39;2.67;;;2.47;;
9972;SDS011;5027;53.560;10.062;2023-05-08T01:52:14;2.93;;;2.63;;
9972;SDS011;5027;53.560;10.062;2023-05-08T01:54:48;2.77;;;2.53;;
9972;SDS011;5027;53.560;10.062;2023-05-08T01:57:28;4.77;;;2.60;;
9972;SDS011;5027;53.560;10.062;2023-05-08T01:59:58;2.60;;;2.40;;
9972;SDS011;5027;53.560;10.062;2023-05-08T02:02:35;3.00;;;2.50;;
9972;SDS011;5027;53.560;10.062;2023-05-08T02:05:03;2.90;;;2.70;;
9972;SDS011;5027;53.560;10.062;2023-05-08T02:07:33;2.40;;;2.20;;
9972;SDS011;5027;53.560;10.062;2023-05-08T02:10:03;3.53;;;3.20;;
9972;SDS011;5027;53.560;10.062;2023-05-08T02:12:31;2.43;;;2.23;;
9972;SDS011;5027;53.560;10.062;2023-05-08T02:15:00;2.90;;;2.40;;
9972;SDS011;5027;53.560;10.062;2023-05-08T02:17:28;3.00;;;2.70;;
9972;SDS011;5027;53.560;10.062;2023-05-08T02:19:57;2.53;;;2.33;;
9972;SDS011;5027;53.560;10.062;2023-05-08T02:22:25;2.80;;;2.60;;
9972;SDS011;5027;53.560;10.062;2023-05-08T02:24:53;3.77;;;2.60;;
9972;SDS011;5027;53.560;10.062;2023-05-08T02:27:21;3.17;;;2.50;;
9972;SDS011;5027;53.560;10.062;2023-05-08T02:29:50;2.93;;;2.67;;
9972;SDS011;5027;53.560;10.062;2023-05-08T02:32:18;2.83;;;2.63;;
9972;SDS011;5027;53.560;10.062;2023-05-08T02:34:47;3.27;;;2.97;;
9972;SDS011;5027;53.560;10.062;2023-05-08T02:37:28;2.83;;;2.60;;
9972;SDS011;5027;53.560;10.062;2023-05-08T02:39:56;2.73;;;2.50;;
9972;SDS011;5027;53.560;10.062;2023-05-08T02:42:24;2.73;;;2.53;;
9972;SDS011;5027;53.560;10.062;2023-05-08T02:44:51;2.80;;;2.60;;
9972;SDS011;5027;53.560;10.062;2023-05-08T02:47:22;2.97;;;2.70;;
9972;SDS011;5027;53.560;10.062;2023-05-08T02:49:54;5.67;;;3.17;;
9972;SDS011;5027;53.560;10.062;2023-05-08T02:52:31;5.13;;;2.90;;
9972;SDS011;5027;53.560;10.062;2023-05-08T02:55:02;4.90;;;2.90;;
9972;SDS011;5027;53.560;10.062;2023-05-08T03:00:41;3.30;;;3.00;;
9972;SDS011;5027;53.560;10.062;2023-05-08T03:03:16;4.23;;;3.20;;
9972;SDS011;5027;53.560;10.062;2023-05-08T03:05:55;4.47;;;3.57;;
9972;SDS011;5027;53.560;10.062;2023-05-08T03:08:30;6.03;;;2.90;;
9972;SDS011;5027;53.560;10.062;2023-05-08T03:11:02;3.40;;;3.10;;
9972;SDS011;5027;53.560;10.062;2023-05-08T03:13:34;3.90;;;3.20;;
9972;SDS011;5027;53.560;10.062;2023-05-08T03:16:07;3.73;;;3.43;;
9972;SDS011;5027;53.560;10.062;2023-05-08T03:18:40;4.27;;;3.20;;
9972;SDS011;5027;53.560;10.062;2023-05-08T03:21:12;3.67;;;3.37;;
9972;SDS011;5027;53.560;10.062;2023-05-08T03:23:43;7.03;;;5.00;;
9972;SDS011;5027;53.560;10.062;2023-05-08T03:26:10;4.47;;;3.10;;
9972;SDS011;5027;53.560;10.062;2023-05-08T03:28:46;4.50;;;3.17;;
9972;SDS011;5027;53.560;10.062;2023-05-08T03:31:16;3.47;;;3.13;;
9972;SDS011;5027;53.560;10.062;2023-05-08T03:33:47;4.40;;;3.40;;
9972;SDS011;5027;53.560;10.062;2023-05-08T03:36:16;3.27;;;3.03;;
9972;SDS011;5027;53.560;10.062;2023-05-08T03:38:43;4.30;;;2.80;;
9972;SDS011;5027;53.560;10.062;2023-05-08T03:41:10;3.47;;;3.17;;
9972;SDS011;5027;53.560;10.062;2023-05-08T03:43:38;3.37;;;3.07;;
9972;SDS011;5027;53.560;10.062;2023-05-08T03:46:06;3.17;;;2.87;;
9972;SDS011;5027;53.560;10.062;2023-05-08T03:48:35;3.33;;;3.07;;
9972;SDS011;5027;53.560;10.062;2023-05-08T03:51:04;4.50;;;3.10;;
9972;SDS011;5027;53.560;10.062;2023-05-08T03:53:34;4.27;;;3.00;;
9972;SDS011;5027;53.560;10.062;2023-05-08T03:56:02;3.57;;;3.00;;
9972;SDS011;5027;53.560;10.062;2023-05-08T03:58:31;5.70;;;3.00;;
9972;SDS011;5027;53.560;10.062;2023-05-08T04:01:22;3.73;;;3.00;;
9972;SDS011;5027;53.560;10.062;2023-05-08T04:04:11;4.90;;;3.63;;
9972;SDS011;5027;53.560;10.062;2023-05-08T04:06:53;4.93;;;3.27;;
9972;SDS011;5027;53.560;10.062;2023-05-08T04:09:57;3.33;;;3.03;;
9972;SDS011;5027;53.560;10.062;2023-05-08T04:12:40;3.53;;;3.23;;
9972;SDS011;5027;53.560;10.062;2023-05-08T04:15:28;3.20;;;2.90;;
9972;SDS011;5027;53.560;10.062;2023-05-08T04:17:58;4.13;;;3.47;;
9972;SDS011;5027;53.560;10.062;2023-05-08T04:20:30;4.77;;;3.70;;
9972;SDS011;5027;53.560;10.062;2023-05-08T04:22:57;4.17;;;2.90;;
9972;SDS011;5027;53.560;10.062;2023-05-08T04:25:26;3.67;;;3.37;;
9972;SDS011;5027;53.560;10.062;2023-05-08T04:27:54;3.47;;;3.10;;
9972;SDS011;5027;53.560;10.062;2023-05-08T04:30:22;3.50;;;3.20;;
9972;SDS011;5027;53.560;10.062;2023-05-08T04:32:50;5.13;;;3.60;;
9972;SDS011;5027;53.560;10.062;2023-05-08T04:35:17;2.93;;;2.63;;
9972;SDS011;5027;53.560;10.062;2023-05-08T04:37:45;3.63;;;3.23;;
9972;SDS011;5027;53.560;10.062;2023-05-08T04:40:12;4.43;;;3.33;;
9972;SDS011;5027;53.560;10.062;2023-05-08T04:42:40;4.00;;;3.17;;
9972;SDS011;5027;53.560;10.062;2023-05-08T04:45:08;3.53;;;3.23;;
9972;SDS011;5027;53.560;10.062;2023-05-08T04:47:36;4.27;;;3.10;;
9972;SDS011;5027;53.560;10.062;2023-05-08T04:50:03;3.40;;;3.10;;
9972;SDS011;5027;53.560;10.062;2023-05-08T04:52:32;3.50;;;3.20;;
9972;SDS011;5027;53.560;10.062;2023-05-08T04:54:58;5.13;;;3.37;;
9972;SDS011;5027;53.560;10.062;2023-05-08T04:57:26;3.60;;;3.30;;
9972;SDS011;5027;53.560;10.062;2023-05-08T04:59:52;3.20;;;2.90;;
9972;SDS011;5027;53.560;10.062;2023-05-08T05:02:19;4.77;;;4.30;;
9972;SDS011;5027;53.560;10.062;2023-05-08T05:04:47;6.73;;;3.10;;
9972;SDS011;5027;53.560;10.062;2023-05-08T05:07:14;5.57;;;3.90;;
9972;SDS011;5027;53.560;10.062;2023-05-08T05:09:40;3.80;;;3.43;;
9972;SDS011;5027;53.560;10.062;2023-05-08T05:12:08;4.83;;;3.87;;
9972;SDS011;5027;53.560;10.062;2023-05-08T05:14:34;3.97;;;3.57;;
9972;SDS011;5027;53.560;10.062;2023-05-08T05:17:01;3.97;;;3.67;;
9972;SDS011;5027;53.560;10.062;2023-05-08T05:19:28;3.93;;;3.63;;
9972;SDS011;5027;53.560;10.062;2023-05-08T05:21:55;4.90;;;3.67;;
9972;SDS011;5027;53.560;10.062;2023-05-08T05:24:22;4.90;;;4.03;;
9972;SDS011;5027;53.560;10.062;2023-05-08T05:26:48;4.30;;;3.90;;
9972;SDS011;5027;53.560;10.062;2023-05-08T05:29:15;4.27;;;3.60;;
9972;SDS011;5027;53.560;10.062;2023-05-08T05:31:42;3.87;;;3.57;;
9972;SDS011;5027;53.560;10.062;2023-05-08T05:34:09;6.30;;;4.60;;
9972;SDS011;5027;53.560;10.062;2023-05-08T05:36:36;6.10;;;4.80;;
9972;SDS011;5027;53.560;10.062;2023-05-08T05:39:03;4.53;;;4.13;;
9972;SDS011;5027;53.560;10.062;2023-05-08T05:41:37;4.53;;;4.10;;
9972;SDS011;5027;53.560;10.062;2023-05-08T05:44:04;4.87;;;4.23;;
9972;SDS011;5027;53.560;10.062;2023-05-08T05:46:31;4.67;;;4.27;;
9972;SDS011;5027;53.560;10.062;2023-05-08T05:49:01;4.37;;;3.93;;
9972;SDS011;5027;53.560;10.062;2023-05-08T05:51:28;4.23;;;3.80;;
9972;SDS011;5027;53.560;10.062;2023-05-08T05:53:55;4.57;;;4.17;;
9972;SDS011;5027;53.560;10.062;2023-05-08T05:56:24;3.77;;;3.47;;
9972;SDS011;5027;53.560;10.062;2023-05-08T05:58:51;5.40;;;3.73;;
9972;SDS011;5027;53.560;10.062;2023-05-08T06:01:18;4.90;;;4.50;;
9972;SDS011;5027;53.560;10.062;2023-05-08T06:03:44;4.97;;;4.40;;
9972;SDS011;5027;53.560;10.062;2023-05-08T06:06:12;4.17;;;3.77;;
9972;SDS011;5027;53.560;10.062;2023-05-08T06:08:39;4.10;;;3.70;;
9972;SDS011;5027;53.560;10.062;2023-05-08T06:11:06;4.33;;;3.93;;
9972;SDS011;5027;53.560;10.062;2023-05-08T06:13:48;4.17;;;3.77;;
9972;SDS011;5027;53.560;10.062;2023-05-08T06:16:16;5.63;;;3.90;;
9972;SDS011;5027;53.560;10.062;2023-05-08T06:18:45;5.23;;;3.80;;
9972;SDS011;5027;53.560;10.062;2023-05-08T06:21:12;5.33;;;4.77;;
9972;SDS011;5027;53.560;10.062;2023-05-08T06:23:41;5.13;;;4.20;;
9972;SDS011;5027;53.560;10.062;2023-05-08T06:26:08;6.30;;;4.10;;
9972;SDS011;5027;53.560;10.062;2023-05-08T06:28:34;4.80;;;4.40;;
9972;SDS011;5027;53.560;10.062;2023-05-08T06:31:01;6.10;;;5.07;;
9972;SDS011;5027;53.560;10.062;2023-05-08T06:33:28;5.00;;;4.50;;
9972;SDS011;5027;53.560;10.062;2023-05-08T06:35:55;4.90;;;4.40;;
9972;SDS011;5027;53.560;10.062;2023-05-08T06:38:21;4.67;;;4.27;;
9972;SDS011;5027;53.560;10.062;2023-05-08T06:40:48;5.13;;;4.63;;
9972;SDS011;5027;53.560;10.062;2023-05-08T06:43:15;7.00;;;4.80;;
9972;SDS011;5027;53.560;10.062;2023-05-08T06:45:42;5.90;;;4.90;;
9972;SDS011;5027;53.560;10.062;2023-05-08T06:48:10;5.73;;;4.43;;
9972;SDS011;5027;53.560;10.062;2023-05-08T06:50:37;5.57;;;4.63;;
9972;SDS011;5027;53.560;10.062;2023-05-08T06:53:05;5.00;;;4.60;;
9972;SDS011;5027;53.560;10.062;2023-05-08T06:55:32;4.97;;;4.47;;
9972;SDS011;5027;53.560;10.062;2023-05-08T06:57:59;5.13;;;4.67;;
9972;SDS011;5027;53.560;10.062;2023-05-08T07:00:26;4.73;;;4.33;;
9972;SDS011;5027;53.560;10.062;2023-05-08T07:02:52;7.80;;;4.93;;
9972;SDS011;5027;53.560;10.062;2023-05-08T07:05:19;6.37;;;5.07;;
9972;SDS011;5027;53.560;10.062;2023-05-08T07:07:46;5.67;;;5.13;;
9972;SDS011;5027;53.560;10.062;2023-05-08T07:10:13;4.90;;;4.50;;
9972;SDS011;5027;53.560;10.062;2023-05-08T07:12:39;5.10;;;4.60;;
9972;SDS011;5027;53.560;10.062;2023-05-08T07:15:06;7.03;;;4.50;;
9972;SDS011;5027;53.560;10.062;2023-05-08T07:17:51;5.50;;;5.10;;
9972;SDS011;5027;53.560;10.062;2023-05-08T07:20:17;5.23;;;4.83;;
9972;SDS011;5027;53.560;10.062;2023-05-08T07:22:44;7.90;;;4.93;;
9972;SDS011;5027;53.560;10.062;2023-05-08T07:25:11;6.30;;;4.87;;
9972;SDS011;5027;53.560;10.062;2023-05-08T07:27:38;6.50;;;5.03;;
9972;SDS011;5027;53.560;10.062;2023-05-08T07:30:06;7.47;;;5.10;;
9972;SDS011;5027;53.560;10.062;2023-05-08T07:32:34;5.93;;;5.43;;
9972;SDS011;5027;53.560;10.062;2023-05-08T07:35:01;5.53;;;5.00;;
9972;SDS011;5027;53.560;10.062;2023-05-08T07:37:28;5.80;;;5.30;;
9972;SDS011;5027;53.560;10.062;2023-05-08T07:39:55;5.43;;;5.03;;
9972;SDS011;5027;53.560;10.062;2023-05-08T07:42:21;5.80;;;5.13;;
9972;SDS011;5027;53.560;10.062;2023-05-08T07:44:48;6.33;;;5.70;;
9972;SDS011;5027;53.560;10.062;2023-05-08T07:47:20;6.77;;;5.80;;
9972;SDS011;5027;53.560;10.062;2023-05-08T07:49:48;6.13;;;5.53;;
9972;SDS011;5027;53.560;10.062;2023-05-08T07:52:16;5.90;;;5.30;;
9972;SDS011;5027;53.560;10.062;2023-05-08T07:54:42;6.13;;;5.50;;
9972;SDS011;5027;53.560;10.062;2023-05-08T07:57:09;5.83;;;5.23;;
9972;SDS011;5027;53.560;10.062;2023-05-08T07:59:36;5.53;;;4.97;;
9972;SDS011;5027;53.560;10.062;2023-05-08T08:02:03;6.43;;;5.23;;
9972;SDS011;5027;53.560;10.062;2023-05-08T08:04:30;5.90;;;5.40;;
9972;SDS011;5027;53.560;10.062;2023-05-08T08:06:56;10.30;;;5.60;;
9972;SDS011;5027;53.560;10.062;2023-05-08T08:09:23;6.17;;;5.60;;
9972;SDS011;5027;53.560;10.062;2023-05-08T08:11:50;8.43;;;7.73;;
9972;SDS011;5027;53.560;10.062;2023-05-08T08:14:16;5.90;;;5.37;;
9972;SDS011;5027;53.560;10.062;2023-05-08T08:16:43;7.30;;;6.70;;
9972;SDS011;5027;53.560;10.062;2023-05-08T08:19:10;6.47;;;5.87;;
9972;SDS011;5027;53.560;10.062;2023-05-08T08:21:43;6.17;;;5.60;;
9972;SDS011;5027;53.560;10.062;2023-05-08T08:24:10;6.17;;;5.57;;
9972;SDS011;5027;53.560;10.062;2023-05-08T08:26:37;6.30;;;5.80;;
9972;SDS011;5027;53.560;10.062;2023-05-08T08:29:03;6.70;;;6.20;;
9972;SDS011;5027;53.560;10.062;2023-05-08T08:31:30;6.30;;;5.80;;
9972;SDS011;5027;53.560;10.062;2023-05-08T08:33:57;8.57;;;5.80;;
9972;SDS011;5027;53.560;10.062;2023-05-08T08:36:24;6.43;;;5.93;;
9972;SDS011;5027;53.560;10.062;2023-05-08T08:38:51;6.20;;;5.70;;
9972;SDS011;5027;53.560;10.062;2023-05-08T08:41:18;10.93;;;6.60;;
9972;SDS011;5027;53.560;10.062;2023-05-08T08:43:44;8.53;;;7.47;;
9972;SDS011;5027;53.560;10.062;2023-05-08T08:46:12;7.20;;;6.50;;
9972;SDS011;5027;53.560;10.062;2023-05-08T08:48:42;6.77;;;6.13;;
9972;SDS011;5027;53.560;10.062;2023-05-08T08:51:17;5.80;;;5.30;;
9972;SDS011;5027;53.560;10.062;2023-05-08T08:56:35;6.13;;;5.53;;
9972;SDS011;5027;53.560;10.062;2023-05-08T08:59:04;6.57;;;5.97;;
9972;SDS011;5027;53.560;10.062;2023-05-08T09:01:37;6.87;;;5.90;;
9972;SDS011;5027;53.560;10.062;2023-05-08T09:04:06;8.50;;;5.77;;
9972;SDS011;5027;53.560;10.062;2023-05-08T09:06:37;6.27;;;5.77;;
9972;SDS011;5027;53.560;10.062;2023-05-08T09:09:04;6.77;;;6.17;;
9972;SDS011;5027;53.560;10.062;2023-05-08T09:11:31;6.23;;;5.73;;
9972;SDS011;5027;53.560;10.062;2023-05-08T09:13:58;6.47;;;5.87;;
9972;SDS011;5027;53.560;10.062;2023-05-08T09:16:24;5.70;;;5.20;;
9972;SDS011;5027;53.560;10.062;2023-05-08T09:18:53;5.73;;;5.27;;
9972;SDS011;5027;53.560;10.062;2023-05-08T09:21:20;5.90;;;5.37;;
9972;SDS011;5027;53.560;10.062;2023-05-08T09:23:58;5.53;;;5.13;;
9972;SDS011;5027;53.560;10.062;2023-05-08T09:26:33;5.70;;;5.20;;
9972;SDS011;5027;53.560;10.062;2023-05-08T09:29:08;6.73;;;5.67;;
9972;SDS011;5027;53.560;10.062;2023-05-08T09:31:47;6.00;;;5.50;;
9972;SDS011;5027;53.560;10.062;2023-05-08T09:34:29;6.03;;;4.87;;
9972;SDS011;5027;53.560;10.062;2023-05-08T09:39:30;8.73;;;4.83;;
9972;SDS011;5027;53.560;10.062;2023-05-08T09:42:01;5.33;;;4.87;;
9972;SDS011;5027;53.560;10.062;2023-05-08T09:52:30;11.33;;;7.43;;
9972;SDS011;5027;53.560;10.062;2023-05-08T09:54:58;4.97;;;4.57;;
9972;SDS011;5027;53.560;10.062;2023-05-08T09:57:33;5.30;;;4.70;;
9972;SDS011;5027;53.560;10.062;2023-05-08T10:00:07;7.13;;;6.43;;
9972;SDS011;5027;53.560;10.062;2023-05-08T10:02:39;5.63;;;4.03;;
9972;SDS011;5027;53.560;10.062;2023-05-08T10:07:57;4.73;;;4.33;;
9972;SDS011;5027;53.560;10.062;2023-05-08T10:10:42;6.13;;;4.43;;
9972;SDS011;5027;53.560;10.062;2023-05-08T10:13:08;4.73;;;4.33;;
9972;SDS011;5027;53.560;10.062;2023-05-08T10:15:36;5.70;;;4.30;;
9972;SDS011;5027;53.560;10.062;2023-05-08T10:18:04;9.23;;;7.30;;
9972;SDS011;5027;53.560;10.062;2023-05-08T10:20:33;6.93;;;4.70;;
9972;SDS011;5027;53.560;10.062;2023-05-08T10:23:00;6.83;;;4.30;;
9972;SDS011;5027;53.560;10.062;2023-05-08T10:25:31;4.90;;;4.50;;
9972;SDS011;5027;53.560;10.062;2023-05-08T10:28:12;5.13;;;4.13;;
9972;SDS011;5027;53.560;10.062;2023-05-08T10:30:46;4.93;;;4.53;;
9972;SDS011;5027;53.560;10.062;2023-05-08T10:33:14;4.63;;;4.23;;
9972;SDS011;5027;53.560;10.062;2023-05-08T10:35:50;7.33;;;4.30;;
9972;SDS011;5027;53.560;10.062;2023-05-08T10:38:17;4.53;;;4.13;;
9972;SDS011;5027;53.560;10.062;2023-05-08T10:40:44;10.33;;;4.00;;
9972;SDS011;5027;53.560;10.062;2023-05-08T10:43:12;5.90;;;4.30;;
9972;SDS011;5027;53.560;10.062;2023-05-08T10:45:40;5.10;;;4.70;;
9972;SDS011;5027;53.560;10.062;2023-05-08T10:48:27;5.20;;;4.10;;
9972;SDS011;5027;53.560;10.062;2023-05-08T10:51:13;5.00;;;4.03;;
9972;SDS011;5027;53.560;10.062;2023-05-08T10:53:51;4.73;;;4.33;;
9972;SDS011;5027;53.560;10.062;2023-05-08T10:56:25;4.57;;;4.17;;
9972;SDS011;5027;53.560;10.062;2023-05-08T10:58:56;7.70;;;4.10;;
9972;SDS011;5027;53.560;10.062;2023-05-08T11:01:24;4.47;;;4.07;;
9972;SDS011;5027;53.560;10.062;2023-05-08T11:03:51;4.17;;;3.77;;
9972;SDS011;5027;53.560;10.062;2023-05-08T11:06:40;3.90;;;3.60;;
9972;SDS011;5027;53.560;10.062;2023-05-08T11:09:18;8.07;;;3.97;;
9972;SDS011;5027;53.560;10.062;2023-05-08T11:11:51;4.43;;;4.10;;
9972;SDS011;5027;53.560;10.062;2023-05-08T11:14:32;12.20;;;3.87;;
9972;SDS011;5027;53.560;10.062;2023-05-08T11:17:02;3.30;;;3.10;;
9972;SDS011;5027;53.560;10.062;2023-05-08T11:19:29;10.87;;;3.47;;
9972;SDS011;5027;53.560;10.062;2023-05-08T11:24:50;3.50;;;3.20;;
9972;SDS011;5027;53.560;10.062;2023-05-08T11:30:17;3.50;;;3.20;;
9972;SDS011;5027;53.560;10.062;2023-05-08T11:35:47;4.47;;;3.17;;
9972;SDS011;5027;53.560;10.062;2023-05-08T11:45:58;3.87;;;2.90;;
9972;SDS011;5027;53.560;10.062;2023-05-08T11:48:26;3.10;;;2.80;;
9972;SDS011;5027;53.560;10.062;2023-05-08T11:50:53;4.60;;;2.97;;
9972;SDS011;5027;53.560;10.062;2023-05-08T11:53:19;2.77;;;2.27;;
9972;SDS011;5027;53.560;10.062;2023-05-08T11:55:51;3.70;;;3.40;;
9972;SDS011;5027;53.560;10.062;2023-05-08T11:58:18;4.03;;;3.40;;
9972;SDS011;5027;53.560;10.062;2023-05-08T12:00:45;6.43;;;2.50;;
9972;SDS011;5027;53.560;10.062;2023-05-08T12:03:14;10.10;;;2.83;;
9972;SDS011;5027;53.560;10.062;2023-05-08T12:05:45;5.20;;;2.90;;
9972;SDS011;5027;53.560;10.062;2023-05-08T12:08:13;5.17;;;3.50;;
9972;SDS011;5027;53.560;10.062;2023-05-08T12:10:51;12.83;;;3.37;;
9972;SDS011;5027;53.560;10.062;2023-05-08T12:15:45;2.70;;;2.43;;
9972;SDS011;5027;53.560;10.062;2023-05-08T12:18:13;2.47;;;2.30;;
9972;SDS011;5027;53.560;10.062;2023-05-08T12:20:45;5.63;;;2.40;;
9972;SDS011;5027;53.560;10.062;2023-05-08T12:23:16;3.93;;;2.27;;
9972;SDS011;5027;53.560;10.062;2023-05-08T12:25:43;2.43;;;2.20;;
9972;SDS011;5027;53.560;10.062;2023-05-08T12:28:10;3.10;;;2.73;;
9972;SDS011;5027;53.560;10.062;2023-05-08T12:30:37;3.03;;;2.80;;
9972;SDS011;5027;53.560;10.062;2023-05-08T12:33:03;3.80;;;3.10;;
9972;SDS011;5027;53.560;10.062;2023-05-08T12:35:31;3.83;;;2.83;;
9972;SDS011;5027;53.560;10.062;2023-05-08T12:38:02;4.07;;;2.40;;
9972;SDS011;5027;53.560;10.062;2023-05-08T12:40:31;4.50;;;2.50;;
9972;SDS011;5027;53.560;10.062;2023-05-08T12:42:59;7.33;;;2.73;;
9972;SDS011;5027;53.560;10.062;2023-05-08T12:45:28;2.60;;;2.40;;
9972;SDS011;5027;53.560;10.062;2023-05-08T12:48:02;3.20;;;2.40;;
9972;SDS011;5027;53.560;10.062;2023-05-08T12:50:33;3.77;;;2.30;;
9972;SDS011;5027;53.560;10.062;2023-05-08T12:53:06;4.70;;;2.70;;
9972;SDS011;5027;53.560;10.062;2023-05-08T12:55:35;3.53;;;2.50;;
9972;SDS011;5027;53.560;10.062;2023-05-08T13:00:48;2.70;;;2.50;;
9972;SDS011;5027;53.560;10.062;2023-05-08T13:03:24;2.60;;;2.40;;
9972;SDS011;5027;53.560;10.062;2023-05-08T13:05:55;6.43;;;3.00;;
9972;SDS011;5027;53.560;10.062;2023-05-08T13:08:30;2.70;;;2.50;;
9972;SDS011;5027;53.560;10.062;2023-05-08T13:11:04;3.93;;;3.13;;
9972;SDS011;5027;53.560;10.062;2023-05-08T13:13:32;6.43;;;5.50;;
9972;SDS011;5027;53.560;10.062;2023-05-08T13:16:03;4.73;;;2.70;;
9972;SDS011;5027;53.560;10.062;2023-05-08T13:18:32;4.53;;;2.87;;
9972;SDS011;5027;53.560;10.062;2023-05-08T13:21:01;4.23;;;2.80;;
9972;SDS011;5027;53.560;10.062;2023-05-08T13:23:28;6.93;;;2.50;;
9972;SDS011;5027;53.560;10.062;2023-05-08T13:25:55;3.07;;;2.63;;
9972;SDS011;5027;53.560;10.062;2023-05-08T13:28:22;4.27;;;2.30;;
9972;SDS011;5027;53.560;10.062;2023-05-08T13:30:48;5.47;;;2.90;;
9972;SDS011;5027;53.560;10.062;2023-05-08T13:33:15;4.47;;;2.40;;
9972;SDS011;5027;53.560;10.062;2023-05-08T13:35:42;5.90;;;2.90;;
9972;SDS011;5027;53.560;10.062;2023-05-08T13:38:08;2.93;;;2.37;;
9972;SDS011;5027;53.560;10.062;2023-05-08T13:40:35;3.03;;;2.30;;
9972;SDS011;5027;53.560;10.062;2023-05-08T13:43:02;4.60;;;2.37;;
9972;SDS011;5027;53.560;10.062;2023-05-08T13:45:28;6.00;;;3.07;;
9972;SDS011;5027;53.560;10.062;2023-05-08T13:47:56;4.00;;;2.83;;
9972;SDS011;5027;53.560;10.062;2023-05-08T13:50:23;3.67;;;2.70;;
9972;SDS011;5027;53.560;10.062;2023-05-08T13:52:49;6.13;;;3.10;;
9972;SDS011;5027;53.560;10.062;2023-05-08T13:55:20;5.37;;;2.70;;
9972;SDS011;5027;53.560;10.062;2023-05-08T13:57:48;5.27;;;3.30;;
9972;SDS011;5027;53.560;10.062;2023-05-08T14:00:14;7.40;;;2.73;;
9972;SDS011;5027;53.560;10.062;2023-05-08T14:02:41;2.40;;;2.20;;
9972;SDS011;5027;53.560;10.062;2023-05-08T14:05:09;3.70;;;2.30;;
9972;SDS011;5027;53.560;10.062;2023-05-08T14:07:35;2.53;;;2.27;;
9972;SDS011;5027;53.560;10.062;2023-05-08T14:10:03;2.40;;;2.20;;
9972;SDS011;5027;53.560;10.062;2023-05-08T14:12:30;2.30;;;2.10;;
9972;SDS011;5027;53.560;10.062;2023-05-08T14:15:01;3.73;;;2.80;;
9972;SDS011;5027;53.560;10.062;2023-05-08T14:17:30;3.53;;;2.47;;
9972;SDS011;5027;53.560;10.062;2023-05-08T14:19:57;2.47;;;2.27;;
9972;SDS011;5027;53.560;10.062;2023-05-08T14:22:24;6.17;;;2.50;;
9972;SDS011;5027;53.560;10.062;2023-05-08T14:24:51;3.90;;;2.40;;
9972;SDS011;5027;53.560;10.062;2023-05-08T14:27:18;3.17;;;2.50;;
9972;SDS011;5027;53.560;10.062;2023-05-08T14:29:45;2.80;;;2.17;;
9972;SDS011;5027;53.560;10.062;2023-05-08T14:32:11;2.40;;;2.20;;
9972;SDS011;5027;53.560;10.062;2023-05-08T14:34:38;4.60;;;2.67;;
9972;SDS011;5027;53.560;10.062;2023-05-08T14:37:05;2.80;;;2.60;;
9972;SDS011;5027;53.560;10.062;2023-05-08T14:39:31;4.33;;;2.40;;
9972;SDS011;5027;53.560;10.062;2023-05-08T14:41:59;3.30;;;2.50;;
9972;SDS011;5027;53.560;10.062;2023-05-08T14:44:46;3.87;;;2.20;;
9972;SDS011;5027;53.560;10.062;2023-05-08T14:47:13;6.53;;;2.10;;
9972;SDS011;5027;53.560;10.062;2023-05-08T14:49:40;4.93;;;2.73;;
9972;SDS011;5027;53.560;10.062;2023-05-08T14:52:06;2.50;;;2.10;;
9972;SDS011;5027;53.560;10.062;2023-05-08T14:54:33;4.13;;;2.37;;
9972;SDS011;5027;53.560;10.062;2023-05-08T14:57:00;3.10;;;2.10;;
9972;SDS011;5027;53.560;10.062;2023-05-08T14:59:27;2.20;;;2.00;;
9972;SDS011;5027;53.560;10.062;2023-05-08T15:01:53;6.10;;;2.30;;
9972;SDS011;5027;53.560;10.062;2023-05-08T15:04:20;3.63;;;3.00;;
9972;SDS011;5027;53.560;10.062;2023-05-08T15:06:47;4.57;;;2.30;;
9972;SDS011;5027;53.560;10.062;2023-05-08T15:09:14;2.57;;;2.37;;
9972;SDS011;5027;53.560;10.062;2023-05-08T15:11:42;3.60;;;2.47;;
9972;SDS011;5027;53.560;10.062;2023-05-08T15:14:09;3.93;;;2.23;;
9972;SDS011;5027;53.560;10.062;2023-05-08T15:16:36;3.20;;;2.10;;
9972;SDS011;5027;53.560;10.062;2023-05-08T15:19:02;3.60;;;2.20;;
9972;SDS011;5027;53.560;10.062;2023-05-08T15:21:29;3.07;;;2.00;;
9972;SDS011;5027;53.560;10.062;2023-05-08T15:23:56;1.93;;;1.73;;
9972;SDS011;5027;53.560;10.062;2023-05-08T15:26:22;3.93;;;2.30;;
9972;SDS011;5027;53.560;10.062;2023-05-08T15:28:49;12.70;;;8.83;;
9972;SDS011;5027;53.560;10.062;2023-05-08T15:31:16;5.43;;;3.40;;
9972;SDS011;5027;53.560;10.062;2023-05-08T15:33:43;4.17;;;3.77;;
9972;SDS011;5027;53.560;10.062;2023-05-08T15:36:14;2.90;;;2.13;;
9972;SDS011;5027;53.560;10.062;2023-05-08T15:38:41;4.13;;;2.93;;
9972;SDS011;5027;53.560;10.062;2023-05-08T15:41:08;8.10;;;6.40;;
9972;SDS011;5027;53.560;10.062;2023-05-08T15:43:40;3.40;;;2.40;;
9972;SDS011;5027;53.560;10.062;2023-05-08T15:46:07;2.70;;;2.10;;
9972;SDS011;5027;53.560;10.062;2023-05-08T15:48:34;2.00;;;1.90;;
9972;SDS011;5027;53.560;10.062;2023-05-08T15:51:00;3.27;;;2.40;;
9972;SDS011;5027;53.560;10.062;2023-05-08T15:53:27;4.40;;;2.00;;
9972;SDS011;5027;53.560;10.062;2023-05-08T15:55:54;4.80;;;2.40;;
9972;SDS011;5027;53.560;10.062;2023-05-08T15:58:22;3.97;;;2.10;;
9972;SDS011;5027;53.560;10.062;2023-05-08T16:00:49;5.33;;;2.17;;
9972;SDS011;5027;53.560;10.062;2023-05-08T16:03:15;2.83;;;2.00;;
9972;SDS011;5027;53.560;10.062;2023-05-08T16:05:43;3.60;;;1.87;;
9972;SDS011;5027;53.560;10.062;2023-05-08T16:08:09;5.17;;;2.10;;
9972;SDS011;5027;53.560;10.062;2023-05-08T16:10:38;4.27;;;2.37;;